sensor_id;sensor_type;location;lat;lon;timestamp;pressure;altitude;pressure_sealevel;temperature;humidity
78573;BME280;67862;0.000;0.000;2023-04-24T00:01:18;98382.56;;;22.51;53.57
78573;BME280;67862;0.000;0.000;2023-04-24T00:03:44;98384.19;;;22.52;53.33
78573;BME280;67862;0.000;0.000;2023-04-24T00:06:09;98378.22;;;22.50;53.57
78573;BME280;67862;0.000;0.000;2023-04-24T00:08:35;98381.78;;;22.50;53.63
78573;BME280;67862;0.000;0.000;2023-04-24T00:11:00;98379.53;;;22.52;53.51
78573;BME280;67862;0.000;0.000;2023-04-24T00:13:26;98372.44;;;22.51;53.38
78573;BME280;67862;0.000;0.000;2023-04-24T00:15:53;98375.16;;;22.51;53.59
78573;BME280;67862;0.000;0.000;2023-04-24T00:18:19;98378.06;;;22.55;53.12
78573;BME280;67862;0.000;0.000;2023-04-24T00:20:44;98370.19;;;22.53;53.36
78573;BME280;67862;0.000;0.000;2023-04-24T00:23:09;98368.56;;;22.52;53.12
78573;BME280;67862;0.000;0.000;2023-04-24T00:25:35;98370.66;;;22.55;53.01
78573;BME280;67862;0.000;0.000;2023-04-24T00:28:00;98369.06;;;22.54;53.15
78573;BME280;67862;0.000;0.000;2023-04-24T00:30:25;98373.41;;;22.55;53.10
78573;BME280;67862;0.000;0.000;2023-04-24T00:32:51;98365.53;;;22.54;53.31
78573;BME280;67862;0.000;0.000;2023-04-24T00:35:16;98373.41;;;22.55;52.91
78573;BME280;67862;0.000;0.000;2023-04-24T00:37:42;98374.03;;;22.52;53.19
78573;BME280;67862;0.000;0.000;2023-04-24T00:40:07;98370.66;;;22.55;53.02
78573;BME280;67862;0.000;0.000;2023-04-24T00:42:32;98367.13;;;22.55;53.04
78573;BME280;67862;0.000;0.000;2023-04-24T00:44:58;98370.53;;;22.61;52.93
78573;BME280;67862;0.000;0.000;2023-04-24T00:47:24;98365.88;;;22.61;53.11
78573;BME280;67862;0.000;0.000;2023-04-24T00:49:51;98377.63;;;22.62;52.49
78573;BME280;67862;0.000;0.000;2023-04-24T00:52:16;98368.28;;;22.63;52.67
78573;BME280;67862;0.000;0.000;2023-04-24T00:54:43;98372.94;;;22.62;52.44
78573;BME280;67862;0.000;0.000;2023-04-24T00:57:10;98369.41;;;22.62;52.59
78573;BME280;67862;0.000;0.000;2023-04-24T00:59:35;98370.69;;;22.64;52.48
78573;BME280;67862;0.000;0.000;2023-04-24T01:04:47;98367.47;;;22.62;52.12
78573;BME280;67862;0.000;0.000;2023-04-24T01:07:13;98357.34;;;22.63;51.83
78573;BME280;67862;0.000;0.000;2023-04-24T01:09:39;98358.16;;;22.63;52.30
78573;BME280;67862;0.000;0.000;2023-04-24T01:12:08;98355.72;;;22.62;52.14
78573;BME280;67862;0.000;0.000;2023-04-24T01:14:34;98353.00;;;22.62;52.03
78573;BME280;67862;0.000;0.000;2023-04-24T01:16:59;98350.59;;;22.60;52.64
78573;BME280;67862;0.000;0.000;2023-04-24T01:19:25;98347.03;;;22.60;52.21
78573;BME280;67862;0.000;0.000;2023-04-24T01:21:51;98349.25;;;22.57;52.63
78573;BME280;67862;0.000;0.000;2023-04-24T01:24:19;98347.66;;;22.56;52.58
78573;BME280;67862;0.000;0.000;2023-04-24T01:26:44;98355.53;;;22.58;52.93
78573;BME280;67862;0.000;0.000;2023-04-24T01:29:10;98357.00;;;22.55;53.13
78573;BME280;67862;0.000;0.000;2023-04-24T01:31:35;98356.19;;;22.55;53.09
78573;BME280;67862;0.000;0.000;2023-04-24T01:34:01;98351.53;;;22.55;52.94
78573;BME280;67862;0.000;0.000;2023-04-24T01:36:27;98343.63;;;22.54;53.13
78573;BME280;67862;0.000;0.000;2023-04-24T01:38:54;98351.53;;;22.55;53.72
78573;BME280;67862;0.000;0.000;2023-04-24T01:41:20;98349.91;;;22.54;53.36
78573;BME280;67862;0.000;0.000;2023-04-24T01:43:45;98355.38;;;22.54;53.48
78573;BME280;67862;0.000;0.000;2023-04-24T01:46:11;98349.09;;;22.54;53.91
78573;BME280;67862;0.000;0.000;2023-04-24T01:48:36;98349.59;;;22.56;53.97
78573;BME280;67862;0.000;0.000;2023-04-24T01:51:02;98352.00;;;22.57;53.76
78573;BME280;67862;0.000;0.000;2023-04-24T01:53:27;98348.97;;;22.59;53.54
78573;BME280;67862;0.000;0.000;2023-04-24T01:55:52;98347.34;;;22.58;53.39
78573;BME280;67862;0.000;0.000;2023-04-24T01:58:18;98343.78;;;22.57;53.22
78573;BME280;67862;0.000;0.000;2023-04-24T02:00:43;98331.25;;;22.56;53.01
78573;BME280;67862;0.000;0.000;2023-04-24T02:03:08;98328.19;;;22.58;53.35
78573;BME280;67862;0.000;0.000;2023-04-24T02:05:34;98328.19;;;22.58;53.31
78573;BME280;67862;0.000;0.000;2023-04-24T02:07:59;98323.03;;;22.56;53.29
78573;BME280;67862;0.000;0.000;2023-04-24T02:10:24;98324.66;;;22.57;53.35
78573;BME280;67862;0.000;0.000;2023-04-24T02:12:50;98334.16;;;22.60;53.26
78573;BME280;67862;0.000;0.000;2023-04-24T02:15:15;98330.63;;;22.60;52.96
78573;BME280;67862;0.000;0.000;2023-04-24T02:17:41;98322.91;;;22.62;52.88
78573;BME280;67862;0.000;0.000;2023-04-24T02:20:07;98320.50;;;22.60;53.02
78573;BME280;67862;0.000;0.000;2023-04-24T02:22:33;98315.81;;;22.61;53.37
78573;BME280;67862;0.000;0.000;2023-04-24T02:24:58;98316.63;;;22.61;53.51
78573;BME280;67862;0.000;0.000;2023-04-24T02:27:24;98306.16;;;22.54;53.03
78573;BME280;67862;0.000;0.000;2023-04-24T02:29:50;98298.13;;;22.49;52.83
78573;BME280;67862;0.000;0.000;2023-04-24T02:32:15;98282.31;;;22.46;53.00
78573;BME280;67862;0.000;0.000;2023-04-24T02:34:41;98280.72;;;22.45;52.42
78573;BME280;67862;0.000;0.000;2023-04-24T02:37:06;98272.50;;;22.45;52.87
78573;BME280;67862;0.000;0.000;2023-04-24T02:39:31;98267.38;;;22.44;52.57
78573;BME280;67862;0.000;0.000;2023-04-24T02:41:57;98254.00;;;22.42;52.85
78573;BME280;67862;0.000;0.000;2023-04-24T02:44:22;98243.88;;;22.43;52.89
78573;BME280;67862;0.000;0.000;2023-04-24T02:46:47;98240.34;;;22.42;53.06
78573;BME280;67862;0.000;0.000;2023-04-24T02:49:13;98237.44;;;22.47;53.00
78573;BME280;67862;0.000;0.000;2023-04-24T02:51:38;98235.03;;;22.54;53.17
78573;BME280;67862;0.000;0.000;2023-04-24T02:54:07;98231.97;;;22.47;52.76
78573;BME280;67862;0.000;0.000;2023-04-24T02:56:33;98236.16;;;22.45;52.99
78573;BME280;67862;0.000;0.000;2023-04-24T02:58:59;98227.16;;;22.44;53.04
78573;BME280;67862;0.000;0.000;2023-04-24T03:01:25;98234.06;;;22.42;52.92
78573;BME280;67862;0.000;0.000;2023-04-24T03:03:51;98238.72;;;22.41;53.04
78573;BME280;67862;0.000;0.000;2023-04-24T03:06:16;98233.25;;;22.41;53.50
78573;BME280;67862;0.000;0.000;2023-04-24T03:08:43;98239.06;;;22.40;53.51
78573;BME280;67862;0.000;0.000;2023-04-24T03:11:08;98241.00;;;22.39;53.26
78573;BME280;67862;0.000;0.000;2023-04-24T03:13:33;98241.28;;;22.38;53.11
78573;BME280;67862;0.000;0.000;2023-04-24T03:16:00;98240.47;;;22.37;53.65
78573;BME280;67862;0.000;0.000;2023-04-24T03:18:25;98242.09;;;22.38;53.41
78573;BME280;67862;0.000;0.000;2023-04-24T03:20:50;98243.72;;;22.39;53.62
78573;BME280;67862;0.000;0.000;2023-04-24T03:23:16;98241.78;;;22.40;53.61
78573;BME280;67862;0.000;0.000;2023-04-24T03:25:41;98253.03;;;22.38;53.25
78573;BME280;67862;0.000;0.000;2023-04-24T03:28:08;98249.81;;;22.36;53.33
78573;BME280;67862;0.000;0.000;2023-04-24T03:30:33;98253.34;;;22.37;53.55
78573;BME280;67862;0.000;0.000;2023-04-24T03:32:59;98261.88;;;22.35;53.19
78573;BME280;67862;0.000;0.000;2023-04-24T03:35:24;98249.81;;;22.36;53.33
78573;BME280;67862;0.000;0.000;2023-04-24T03:37:50;98249.00;;;22.36;53.58
78573;BME280;67862;0.000;0.000;2023-04-24T03:40:16;98245.47;;;22.35;53.51
78573;BME280;67862;0.000;0.000;2023-04-24T03:42:42;98247.41;;;22.35;53.08
78573;BME280;67862;0.000;0.000;2023-04-24T03:45:08;98245.78;;;22.34;53.23
78573;BME280;67862;0.000;0.000;2023-04-24T03:47:33;98241.13;;;22.34;53.64
78573;BME280;67862;0.000;0.000;2023-04-24T03:49:59;98241.13;;;22.34;53.18
78573;BME280;67862;0.000;0.000;2023-04-24T03:52:24;98247.72;;;22.33;53.31
78573;BME280;67862;0.000;0.000;2023-04-24T03:54:50;98248.53;;;22.34;53.25
78573;BME280;67862;0.000;0.000;2023-04-24T03:57:15;98247.41;;;22.35;53.47
78573;BME280;67862;0.000;0.000;2023-04-24T03:59:41;98250.47;;;22.33;53.35
78573;BME280;67862;0.000;0.000;2023-04-24T04:02:06;98257.84;;;22.33;53.29
78573;BME280;67862;0.000;0.000;2023-04-24T04:04:32;98254.31;;;22.32;53.68
78573;BME280;67862;0.000;0.000;2023-04-24T04:06:58;98251.91;;;22.31;53.52
78573;BME280;67862;0.000;0.000;2023-04-24T04:09:26;98245.00;;;22.33;53.34
78573;BME280;67862;0.000;0.000;2023-04-24T04:11:51;98251.59;;;22.32;53.71
78573;BME280;67862;0.000;0.000;2023-04-24T04:14:17;98253.19;;;22.33;53.66
78573;BME280;67862;0.000;0.000;2023-04-24T04:16:43;98253.19;;;22.33;53.20
78573;BME280;67862;0.000;0.000;2023-04-24T04:19:08;98237.59;;;22.34;53.40
78573;BME280;67862;0.000;0.000;2023-04-24T04:21:33;98248.19;;;22.35;53.42
78573;BME280;67862;0.000;0.000;2023-04-24T04:23:59;98250.47;;;22.33;53.64
78573;BME280;67862;0.000;0.000;2023-04-24T04:26:24;98248.88;;;22.41;53.44
78573;BME280;67862;0.000;0.000;2023-04-24T04:28:51;98250.94;;;22.44;53.09
78573;BME280;67862;0.000;0.000;2023-04-24T04:31:17;98243.06;;;22.42;53.82
78573;BME280;67862;0.000;0.000;2023-04-24T04:33:43;98245.47;;;22.44;53.35
78573;BME280;67862;0.000;0.000;2023-04-24T04:36:08;98243.56;;;22.44;53.64
78573;BME280;67862;0.000;0.000;2023-04-24T04:38:33;98246.75;;;22.46;54.08
78573;BME280;67862;0.000;0.000;2023-04-24T04:41:00;98247.56;;;22.47;53.76
78573;BME280;67862;0.000;0.000;2023-04-24T04:43:25;98251.09;;;22.47;53.96
78573;BME280;67862;0.000;0.000;2023-04-24T04:45:51;98239.38;;;22.47;53.93
78573;BME280;67862;0.000;0.000;2023-04-24T04:48:17;98245.63;;;22.47;54.54
78573;BME280;67862;0.000;0.000;2023-04-24T04:50:43;98241.78;;;22.48;54.46
78573;BME280;67862;0.000;0.000;2023-04-24T04:53:09;98237.13;;;22.49;54.63
78573;BME280;67862;0.000;0.000;2023-04-24T04:55:35;98234.41;;;22.49;54.61
78573;BME280;67862;0.000;0.000;2023-04-24T04:58:01;98238.25;;;22.56;53.62
78573;BME280;67862;0.000;0.000;2023-04-24T05:00:26;98237.44;;;22.47;53.99
78573;BME280;67862;0.000;0.000;2023-04-24T05:02:52;98242.59;;;22.40;53.90
78573;BME280;67862;0.000;0.000;2023-04-24T05:05:17;98240.47;;;22.37;53.56
78573;BME280;67862;0.000;0.000;2023-04-24T05:07:43;98238.06;;;22.36;53.54
78573;BME280;67862;0.000;0.000;2023-04-24T05:10:08;98232.94;;;22.34;53.36
78573;BME280;67862;0.000;0.000;2023-04-24T05:12:34;98235.66;;;22.34;53.30
78573;BME280;67862;0.000;0.000;2023-04-24T05:14:59;98234.06;;;22.33;52.91
78573;BME280;67862;0.000;0.000;2023-04-24T05:17:25;98229.41;;;22.42;52.55
78573;BME280;67862;0.000;0.000;2023-04-24T05:19:51;98228.28;;;22.43;52.77
78573;BME280;67862;0.000;0.000;2023-04-24T05:22:16;98232.78;;;22.39;52.83
78573;BME280;67862;0.000;0.000;2023-04-24T05:24:43;98230.66;;;22.36;52.76
78573;BME280;67862;0.000;0.000;2023-04-24T05:27:09;98223.13;;;22.33;52.57
78573;BME280;67862;0.000;0.000;2023-04-24T05:29:34;98218.28;;;22.30;52.49
78573;BME280;67862;0.000;0.000;2023-04-24T05:32:00;98222.72;;;22.09;47.99
78573;BME280;67862;0.000;0.000;2023-04-24T05:34:25;98224.69;;;21.77;46.58
78573;BME280;67862;0.000;0.000;2023-04-24T05:36:51;98219.09;;;21.82;48.44
78573;BME280;67862;0.000;0.000;2023-04-24T05:39:17;98215.44;;;21.95;52.47
78573;BME280;67862;0.000;0.000;2023-04-24T05:41:42;98213.53;;;22.05;52.09
78573;BME280;67862;0.000;0.000;2023-04-24T05:44:08;98209.56;;;22.11;50.41
78573;BME280;67862;0.000;0.000;2023-04-24T05:46:33;98203.22;;;21.93;45.75
78573;BME280;67862;0.000;0.000;2023-04-24T05:48:59;98213.94;;;21.72;47.35
78573;BME280;67862;0.000;0.000;2023-04-24T05:51:24;98213.16;;;21.89;51.01
78573;BME280;67862;0.000;0.000;2023-04-24T05:53:50;98213.66;;;21.99;50.05
78573;BME280;67862;0.000;0.000;2023-04-24T05:56:16;98202.28;;;22.06;49.67
78573;BME280;67862;0.000;0.000;2023-04-24T05:58:41;98208.06;;;22.05;49.60
78573;BME280;67862;0.000;0.000;2023-04-24T06:01:07;98214.06;;;22.07;49.93
78573;BME280;67862;0.000;0.000;2023-04-24T06:03:32;98210.81;;;22.05;49.79
78573;BME280;67862;0.000;0.000;2023-04-24T06:05:58;98216.28;;;22.05;50.12
78573;BME280;67862;0.000;0.000;2023-04-24T06:08:23;98220.13;;;22.04;49.92
78573;BME280;67862;0.000;0.000;2023-04-24T06:10:49;98219.00;;;22.05;50.00
78573;BME280;67862;0.000;0.000;2023-04-24T06:13:14;98217.88;;;22.06;50.04
78573;BME280;67862;0.000;0.000;2023-04-24T06:15:41;98221.75;;;22.05;50.27
78573;BME280;67862;0.000;0.000;2023-04-24T06:18:06;98223.34;;;22.06;50.12
78573;BME280;67862;0.000;0.000;2023-04-24T06:20:32;98225.91;;;22.02;50.06
78573;BME280;67862;0.000;0.000;2023-04-24T06:22:57;98229.44;;;22.03;50.82
78573;BME280;67862;0.000;0.000;2023-04-24T06:25:24;98232.19;;;22.03;50.86
78573;BME280;67862;0.000;0.000;2023-04-24T06:27:50;98236.53;;;22.04;50.72
78573;BME280;67862;0.000;0.000;2023-04-24T06:30:15;98249.06;;;22.05;50.44
78573;BME280;67862;0.000;0.000;2023-04-24T06:32:41;98247.47;;;22.04;50.70
78573;BME280;67862;0.000;0.000;2023-04-24T06:35:06;98233.47;;;22.05;50.36
78573;BME280;67862;0.000;0.000;2023-04-24T06:37:33;98245.84;;;22.03;50.68
78573;BME280;67862;0.000;0.000;2023-04-24T06:39:58;98239.59;;;22.02;50.76
78573;BME280;67862;0.000;0.000;2023-04-24T06:42:24;98238.47;;;22.03;50.78
78573;BME280;67862;0.000;0.000;2023-04-24T06:44:49;98247.47;;;22.04;50.65
78573;BME280;67862;0.000;0.000;2023-04-24T06:47:15;98249.72;;;22.02;50.33
78573;BME280;67862;0.000;0.000;2023-04-24T06:49:40;98246.47;;;21.99;50.86
78573;BME280;67862;0.000;0.000;2023-04-24T06:52:06;98253.06;;;21.98;50.36
78573;BME280;67862;0.000;0.000;2023-04-24T06:54:31;98247.59;;;21.98;50.35
78573;BME280;67862;0.000;0.000;2023-04-24T06:56:57;98242.44;;;21.97;50.45
78573;BME280;67862;0.000;0.000;2023-04-24T06:59:23;98236.19;;;21.96;50.92
78573;BME280;67862;0.000;0.000;2023-04-24T07:01:49;98235.06;;;21.97;50.73
78573;BME280;67862;0.000;0.000;2023-04-24T07:04:14;98240.03;;;21.95;50.80
78573;BME280;67862;0.000;0.000;2023-04-24T07:06:39;98251.44;;;21.97;50.65
78573;BME280;67862;0.000;0.000;2023-04-24T07:09:05;98255.31;;;21.96;50.71
78573;BME280;67862;0.000;0.000;2023-04-24T07:11:30;98255.63;;;21.95;50.82
78573;BME280;67862;0.000;0.000;2023-04-24T07:13:56;98259.47;;;21.94;50.97
78573;BME280;67862;0.000;0.000;2023-04-24T07:16:21;98253.22;;;21.93;50.70
78573;BME280;67862;0.000;0.000;2023-04-24T07:18:48;98250.16;;;21.95;50.30
78573;BME280;67862;0.000;0.000;2023-04-24T07:21:15;98246.94;;;21.93;50.91
78573;BME280;67862;0.000;0.000;2023-04-24T07:23:41;98252.91;;;21.95;50.88
78573;BME280;67862;0.000;0.000;2023-04-24T07:26:06;98247.75;;;21.93;50.83
78573;BME280;67862;0.000;0.000;2023-04-24T07:28:31;98236.00;;;21.93;50.45
78573;BME280;67862;0.000;0.000;2023-04-24T07:30:57;98225.88;;;21.93;50.59
78573;BME280;67862;0.000;0.000;2023-04-24T07:33:23;98238.56;;;21.89;50.97
78573;BME280;67862;0.000;0.000;2023-04-24T07:35:49;98239.06;;;21.91;50.53
78573;BME280;67862;0.000;0.000;2023-04-24T07:38:14;98249.19;;;21.91;50.39
78573;BME280;67862;0.000;0.000;2023-04-24T07:40:40;98248.06;;;21.92;50.78
78573;BME280;67862;0.000;0.000;2023-04-24T07:43:05;98248.69;;;21.89;50.57
78573;BME280;67862;0.000;0.000;2023-04-24T07:45:31;98249.19;;;21.91;50.38
78573;BME280;67862;0.000;0.000;2023-04-24T07:47:58;98260.94;;;21.91;50.38
78573;BME280;67862;0.000;0.000;2023-04-24T07:50:24;98264.75;;;21.90;50.59
78573;BME280;67862;0.000;0.000;2023-04-24T07:52:49;98262.34;;;21.89;50.24
78573;BME280;67862;0.000;0.000;2023-04-24T07:55:15;98264.28;;;21.88;50.72
78573;BME280;67862;0.000;0.000;2023-04-24T07:57:40;98262.34;;;21.89;50.25
78573;BME280;67862;0.000;0.000;2023-04-24T08:00:06;98267.00;;;21.88;50.42
78573;BME280;67862;0.000;0.000;2023-04-24T08:02:31;98267.00;;;21.88;50.32
78573;BME280;67862;0.000;0.000;2023-04-24T08:04:57;98263.78;;;21.86;50.37
78573;BME280;67862;0.000;0.000;2023-04-24T08:07:23;98260.72;;;21.88;50.45
78573;BME280;67862;0.000;0.000;2023-04-24T08:09:48;98259.94;;;21.87;50.37
78573;BME280;67862;0.000;0.000;2023-04-24T08:12:14;98259.13;;;21.87;50.68
78573;BME280;67862;0.000;0.000;2023-04-24T08:14:39;98249.81;;;21.88;50.56
78573;BME280;67862;0.000;0.000;2023-04-24T08:17:05;98245.94;;;21.89;50.59
78573;BME280;67862;0.000;0.000;2023-04-24T08:19:30;98240.81;;;21.87;50.64
78573;BME280;67862;0.000;0.000;2023-04-24T08:21:55;98237.28;;;21.87;50.31
78573;BME280;67862;0.000;0.000;2023-04-24T08:24:21;98238.06;;;21.87;50.23
78573;BME280;67862;0.000;0.000;2023-04-24T08:26:47;98240.47;;;21.89;50.48
78573;BME280;67862;0.000;0.000;2023-04-24T08:29:15;98235.81;;;21.89;50.34
78573;BME280;67862;0.000;0.000;2023-04-24T08:31:40;98235.81;;;21.89;50.60
78573;BME280;67862;0.000;0.000;2023-04-24T08:34:06;98240.47;;;21.89;50.21
78573;BME280;67862;0.000;0.000;2023-04-24T08:36:31;98246.75;;;21.89;50.32
78573;BME280;67862;0.000;0.000;2023-04-24T08:38:57;98241.28;;;21.89;50.57
78573;BME280;67862;0.000;0.000;2023-04-24T08:41:22;98242.41;;;21.88;50.59
78573;BME280;67862;0.000;0.000;2023-04-24T08:43:51;98247.06;;;21.88;50.50
78573;BME280;67862;0.000;0.000;2023-04-24T08:46:16;98248.19;;;21.87;50.07
78573;BME280;67862;0.000;0.000;2023-04-24T08:48:43;98247.41;;;21.86;50.55
78573;BME280;67862;0.000;0.000;2023-04-24T08:51:09;98243.53;;;21.87;50.29
78573;BME280;67862;0.000;0.000;2023-04-24T08:53:34;98249.31;;;21.86;50.26
78573;BME280;67862;0.000;0.000;2023-04-24T08:56:00;98242.25;;;21.85;50.35
78573;BME280;67862;0.000;0.000;2023-04-24T08:58:26;98238.41;;;21.86;50.15
78573;BME280;67862;0.000;0.000;2023-04-24T09:00:54;98243.84;;;21.86;50.29
78573;BME280;67862;0.000;0.000;2023-04-24T09:03:19;98241.94;;;21.86;50.28
78573;BME280;67862;0.000;0.000;2023-04-24T09:05:46;98237.09;;;21.83;50.46
78573;BME280;67862;0.000;0.000;2023-04-24T09:08:12;98242.72;;;21.87;50.25
78573;BME280;67862;0.000;0.000;2023-04-24T09:10:39;98241.94;;;21.86;50.45
78573;BME280;67862;0.000;0.000;2023-04-24T09:13:04;98243.84;;;21.86;50.15
78573;BME280;67862;0.000;0.000;2023-04-24T09:15:30;98243.84;;;21.86;50.33
78573;BME280;67862;0.000;0.000;2023-04-24T09:17:55;98249.81;;;21.88;50.38
78573;BME280;67862;0.000;0.000;2023-04-24T09:20:21;98247.41;;;21.86;50.37
78573;BME280;67862;0.000;0.000;2023-04-24T09:22:46;98241.94;;;21.86;50.45
78573;BME280;67862;0.000;0.000;2023-04-24T09:25:12;98236.94;;;21.88;50.45
78573;BME280;67862;0.000;0.000;2023-04-24T09:27:41;98231.00;;;21.86;49.95
78573;BME280;67862;0.000;0.000;2023-04-24T09:30:06;98231.47;;;21.88;49.97
78573;BME280;67862;0.000;0.000;2023-04-24T09:32:33;98236.16;;;21.88;50.32
78573;BME280;67862;0.000;0.000;2023-04-24T09:37:45;98223.94;;;21.85;49.60
78573;BME280;67862;0.000;0.000;2023-04-24T09:42:37;98215.25;;;21.83;49.96
78573;BME280;67862;0.000;0.000;2023-04-24T09:45:03;98208.97;;;21.83;49.44
78573;BME280;67862;0.000;0.000;2023-04-24T09:47:35;98209.78;;;21.83;49.73
78573;BME280;67862;0.000;0.000;2023-04-24T09:50:01;98203.84;;;21.81;49.79
78573;BME280;67862;0.000;0.000;2023-04-24T09:52:33;98215.72;;;21.85;49.99
78573;BME280;67862;0.000;0.000;2023-04-24T09:54:59;98215.72;;;21.85;49.51
78573;BME280;67862;0.000;0.000;2023-04-24T09:57:24;98213.00;;;21.85;49.63
78573;BME280;67862;0.000;0.000;2023-04-24T09:59:50;98211.88;;;21.86;49.67
78573;BME280;67862;0.000;0.000;2023-04-24T10:02:18;98207.53;;;21.85;49.56
78573;BME280;67862;0.000;0.000;2023-04-24T10:04:53;98199.81;;;21.87;49.56
78573;BME280;67862;0.000;0.000;2023-04-24T10:07:20;98205.59;;;21.86;49.57
78573;BME280;67862;0.000;0.000;2023-04-24T10:09:46;98197.41;;;21.86;49.95
78573;BME280;67862;0.000;0.000;2023-04-24T10:12:11;98201.28;;;21.85;49.52
78573;BME280;67862;0.000;0.000;2023-04-24T10:14:38;98199.03;;;21.87;49.54
78573;BME280;67862;0.000;0.000;2023-04-24T10:17:03;98201.44;;;21.88;49.53
78573;BME280;67862;0.000;0.000;2023-04-24T10:19:29;98192.44;;;21.88;49.77
78573;BME280;67862;0.000;0.000;2023-04-24T10:21:55;98196.78;;;21.89;49.64
78573;BME280;67862;0.000;0.000;2023-04-24T10:24:21;98192.09;;;21.89;49.81
78573;BME280;67862;0.000;0.000;2023-04-24T10:26:46;98195.97;;;21.88;49.84
78573;BME280;67862;0.000;0.000;2023-04-24T10:29:16;98192.91;;;21.90;49.62
78573;BME280;67862;0.000;0.000;2023-04-24T10:31:42;98201.44;;;21.88;49.53
78573;BME280;67862;0.000;0.000;2023-04-24T10:34:10;98201.75;;;21.87;49.50
78573;BME280;67862;0.000;0.000;2023-04-24T10:36:38;98190.50;;;21.88;49.78
78573;BME280;67862;0.000;0.000;2023-04-24T10:39:05;98190.50;;;21.88;49.68
78573;BME280;67862;0.000;0.000;2023-04-24T10:41:33;98189.69;;;21.88;49.87
78573;BME280;67862;0.000;0.000;2023-04-24T10:44:13;98182.78;;;21.90;49.48
78573;BME280;67862;0.000;0.000;2023-04-24T10:46:39;98186.63;;;21.89;49.53
78573;BME280;67862;0.000;0.000;2023-04-24T10:49:07;98183.09;;;21.89;49.40
78573;BME280;67862;0.000;0.000;2023-04-24T10:51:50;98180.69;;;21.87;49.74
78573;BME280;67862;0.000;0.000;2023-04-24T10:54:40;98185.03;;;21.88;49.52
78573;BME280;67862;0.000;0.000;2023-04-24T10:59:46;98190.50;;;21.88;49.43
78573;BME280;67862;0.000;0.000;2023-04-24T11:02:13;98183.75;;;21.86;49.88
78573;BME280;67862;0.000;0.000;2023-04-24T11:04:40;98182.31;;;21.88;49.75
78573;BME280;67862;0.000;0.000;2023-04-24T11:07:05;98188.56;;;21.89;49.43
78573;BME280;67862;0.000;0.000;2023-04-24T11:09:31;98177.97;;;21.87;49.42
78573;BME280;67862;0.000;0.000;2023-04-24T11:12:09;98184.56;;;21.86;49.67
78573;BME280;67862;0.000;0.000;2023-04-24T11:20:11;98173.63;;;21.86;49.55
78573;BME280;67862;0.000;0.000;2023-04-24T11:22:37;98173.63;;;21.86;49.63
78573;BME280;67862;0.000;0.000;2023-04-24T11:25:05;98177.00;;;21.83;49.61
78573;BME280;67862;0.000;0.000;2023-04-24T11:27:34;98174.75;;;21.85;49.44
78573;BME280;67862;0.000;0.000;2023-04-24T11:30:03;98175.06;;;21.84;49.32
78573;BME280;67862;0.000;0.000;2023-04-24T11:32:30;98177.00;;;21.83;49.81
78573;BME280;67862;0.000;0.000;2023-04-24T11:34:56;98178.59;;;21.84;49.63
78573;BME280;67862;0.000;0.000;2023-04-24T11:37:22;98173.94;;;21.85;49.63
78573;BME280;67862;0.000;0.000;2023-04-24T11:39:53;98173.94;;;21.85;49.31
78573;BME280;67862;0.000;0.000;2023-04-24T11:42:19;98172.03;;;21.85;49.31
78573;BME280;67862;0.000;0.000;2023-04-24T11:44:45;98167.03;;;21.87;49.40
78573;BME280;67862;0.000;0.000;2023-04-24T11:47:12;98167.03;;;21.87;49.30
78573;BME280;67862;0.000;0.000;2023-04-24T11:49:38;98154.19;;;21.88;49.30
78573;BME280;67862;0.000;0.000;2023-04-24T11:52:03;98160.75;;;21.87;49.50
78573;BME280;67862;0.000;0.000;2023-04-24T11:54:32;98158.84;;;21.87;49.68
78573;BME280;67862;0.000;0.000;2023-04-24T11:56:57;98153.06;;;21.89;49.44
78573;BME280;67862;0.000;0.000;2023-04-24T11:59:23;98149.84;;;21.87;49.36
78573;BME280;67862;0.000;0.000;2023-04-24T12:01:49;98135.38;;;21.86;49.38
78573;BME280;67862;0.000;0.000;2023-04-24T12:04:15;98139.72;;;21.87;49.83
78573;BME280;67862;0.000;0.000;2023-04-24T12:07:01;98140.84;;;21.86;49.46
78573;BME280;67862;0.000;0.000;2023-04-24T12:09:26;98126.38;;;21.86;49.76
78573;BME280;67862;0.000;0.000;2023-04-24T12:11:52;98132.50;;;21.83;49.53
78573;BME280;67862;0.000;0.000;2023-04-24T12:14:18;98141.97;;;21.85;49.64
78573;BME280;67862;0.000;0.000;2023-04-24T12:16:47;98139.88;;;21.82;49.43
78573;BME280;67862;0.000;0.000;2023-04-24T12:19:17;98136.34;;;21.82;49.77
78573;BME280;67862;0.000;0.000;2023-04-24T12:21:42;98133.63;;;21.82;49.58
78573;BME280;67862;0.000;0.000;2023-04-24T12:24:08;98141.00;;;21.81;49.77
78573;BME280;67862;0.000;0.000;2023-04-24T12:26:33;98140.19;;;21.81;49.58
78573;BME280;67862;0.000;0.000;2023-04-24T12:29:00;98126.03;;;21.79;49.81
78573;BME280;67862;0.000;0.000;2023-04-24T12:31:26;98138.28;;;21.81;49.97
78573;BME280;67862;0.000;0.000;2023-04-24T12:33:54;98141.16;;;21.85;50.36
78573;BME280;67862;0.000;0.000;2023-04-24T12:36:21;98139.22;;;21.85;50.52
78573;BME280;67862;0.000;0.000;2023-04-24T12:38:46;98142.44;;;21.87;50.71
78573;BME280;67862;0.000;0.000;2023-04-24T12:41:17;98153.38;;;21.87;50.38
78573;BME280;67862;0.000;0.000;2023-04-24T12:43:50;98136.97;;;21.87;50.66
78573;BME280;67862;0.000;0.000;2023-04-24T12:46:16;98122.19;;;21.88;50.73
78573;BME280;67862;0.000;0.000;2023-04-24T12:48:41;98114.00;;;21.88;50.95
78573;BME280;67862;0.000;0.000;2023-04-24T12:51:07;98117.22;;;21.90;50.68
78573;BME280;67862;0.000;0.000;2023-04-24T12:53:32;98106.59;;;21.89;51.12
78573;BME280;67862;0.000;0.000;2023-04-24T12:55:57;98100.81;;;21.90;51.06
78573;BME280;67862;0.000;0.000;2023-04-24T12:58:23;98102.44;;;21.91;50.74
78573;BME280;67862;0.000;0.000;2023-04-24T13:00:48;98102.59;;;21.95;50.76
78573;BME280;67862;0.000;0.000;2023-04-24T13:03:14;98105.00;;;21.96;50.54
78573;BME280;67862;0.000;0.000;2023-04-24T13:05:42;98103.88;;;21.97;50.81
78573;BME280;67862;0.000;0.000;2023-04-24T13:08:07;98106.63;;;21.97;50.98
78573;BME280;67862;0.000;0.000;2023-04-24T13:10:33;98100.03;;;21.98;51.03
78573;BME280;67862;0.000;0.000;2023-04-24T13:12:59;98096.34;;;22.03;50.74
78573;BME280;67862;0.000;0.000;2023-04-24T13:15:24;98090.56;;;22.05;50.58
78573;BME280;67862;0.000;0.000;2023-04-24T13:17:50;98082.88;;;22.07;50.62
78573;BME280;67862;0.000;0.000;2023-04-24T13:20:15;98078.19;;;22.07;50.60